Passageiro filmou o toque em que o Boeing 757 quebrou o trem de pouso

Um passageiro filmou o momento do toque do Boeing 757 na pista de Keflavik nessa sexta-feira, 7 de fevereiro, que terminou com a quebra do trem de pouso direito da aeronave.

Avião Boeing 757 Icelandair Trem de Pouso Quebrado

Conforme divulgamos ontem, o Boeing 757-200 da companhia aérea Icelandair, com registro TF-FIA, aterrissou na pista 10 de Keflavik, mas sofreu o acidente após o pouso ter ocorrido de forma dura, ou seja, com a aeronave perdendo altura muito rapidamente e tocando o solo com mais força do que deveria.

Como consequência, houve o colapso do trem de pouso principal direito, e a aeronave parou na pista apoiada nos trens do nariz e principal esquerdo, além do motor direito. Os passageiros desembarcaram na pista e foram levados para o terminal, e não houve feridos.

Os viajantes relataram que a aeronave saltou de volta ao ar após o primeiro contato com a pista, e no segundo toque ocorreu a quebra do trem de pouso. O Boeing 757 arrastou-se sobre o motor, liberando faíscas e fumaça.

Apesar de não haver grandes variações de atitude da aeronave ao longo da filmagem, as condições climáticas eram bastante degradadas, com os dados meteorológicos (METAR) indicando ventos de rajada de mais de 50 nós (90 km/h), conforme indicado pelas siglas G55KT e G56KT:

METAR:

  • BIKF 071600Z 13042G55KT 8000 BR OVC013 07/06 Q0966=
  • BIKF 071530Z 13042G56KT 6000 BR OVC013 07/06 Q0967=

Veja a seguir o vídeo da aproximação e do momento do toque. E abaixo dele, escolha outros casos de acidentes filmados por passageiros:

Murilo Basseto

Formado em Engenharia, foi um dos líderes do Urubus Aerodesign da Unicamp e um dos responsáveis por alçar o grupo à elite mundial da engenharia aeronáutica universitária. Atualmente é Editor-Chefe do AEROIN.

Deixe uma resposta

O seu endereço de e-mail não será publicado.